Bergamot Ace — ZGAS5 — position and weather

sailwx.info

Track history (hours):
 
Tides and Currents Weather Stations Pressure Air Temp Water Temp Dewpoint Dewpoint Depression Visibility Wind Speed Wind Dir Waves Ship Positions

Bergamot Ace

Last reported at 2014-Dec-03 19:09 UTC. Time now 2014-Dec-19 06:34 UTC.
Position S 33°48' E 018°00'.
Warning: this ship's position is 15 days out of date.

Length 186 m; draft 7.3 m.

Type: Cargo ship. MMSI: 319740000.

Date/timePositionNaut miles runAvg speedWind from/ knotsBaromVisibWave heightAir tempDewpointWater temp
2014-Dec-03 19:09S 33°48' E 018°00'1118.5
2014-Dec-03 18:33S 33°58' E 018°05'1918.5
2014-Dec-03 17:32S 34°15' E 018°14'2317.9
2014-Dec-03 16:14S 34°32' E 018°34'1518.5
2014-Dec-03 15:26S 34°37' E 018°50'28117.5
2014-Dec-02 23:22S 34°20' E 024°30'3317.8
2014-Dec-02 21:30S 34°15' E 025°10'37218.5
2014-Dec-02 01:26S 30°21' E 030°51'1719.0
2014-Dec-02 00:33S 30°06' E 031°01'1515.3
2014-Dec-01 23:33S 29°52' E 031°05'2 1.9
2014-Dec-01 22:22S 29°52' E 031°02'0 0.0
2014-Dec-01 21:22S 29°52' E 031°02'0 0.0
2014-Dec-01 20:28S 29°52' E 031°02'0 0.0
2014-Dec-01 19:28S 29°52' E 031°02'0 0.0
2014-Dec-01 18:28S 29°52' E 031°02'0 0.0
2014-Dec-01 17:28S 29°52' E 031°02'0 0.0
2014-Dec-01 16:28S 29°52' E 031°02'0 0.0
2014-Dec-01 15:28S 29°52' E 031°02'0 0.0
2014-Dec-01 14:28S 29°52' E 031°02'0 0.0
2014-Dec-01 13:28S 29°52' E 031°02'0 0.0
2014-Dec-01 12:28S 29°52' E 031°02'2 2.6
2014-Dec-01 11:33S 29°51' E 031°05'5 5.5
2014-Dec-01 10:33S 29°49' E 031°10'5 5.2
2014-Dec-01 09:33S 29°51' E 031°05'2 1.7
2014-Dec-01 08:33S 29°52' E 031°03'4 4.0
2014-Dec-01 07:33S 29°49' E 031°07'1 1.5
2014-Dec-01 06:33S 29°49' E 031°08'2 1.5
2014-Dec-01 05:33S 29°50' E 031°10'1 1.1
2014-Dec-01 04:33S 29°51' E 031°10'1 1.0
2014-Dec-01 03:33S 29°51' E 031°11'3 3.2
2014-Dec-01 02:33S 29°52' E 031°14'1 0.9
2014-Dec-01 01:33S 29°51' E 031°14'2 1.5
2014-Dec-01 00:33S 29°51' E 031°12'8 8.1
2014-Nov-30 23:33S 29°59' E 031°10'1 0.8
2014-Nov-30 22:33S 29°58' E 031°10'1 1.3
2014-Nov-30 21:33S 29°58' E 031°09'1 0.9
2014-Nov-30 20:33S 29°57' E 031°09'1 0.7
2014-Nov-30 19:33S 29°56' E 031°09'1 1.3
2014-Nov-30 18:33S 29°55' E 031°10'1 1.2
2014-Nov-30 17:33S 29°55' E 031°12'1 1.0
2014-Nov-30 16:33S 29°55' E 031°13'  
2014-Nov-27 15:32S 29°10' E 032°01'1515.0
2014-Nov-27 14:33S 29°20' E 031°49'1515.5
2014-Nov-27 13:33S 29°32' E 031°37'1615.5
2014-Nov-27 12:33S 29°44' E 031°26'1515.3
2014-Nov-27 11:33S 29°57' E 031°16'1515.2
2014-Nov-27 10:33S 30°07' E 031°04'25013.9
2014-Nov-26 16:32S 33°15' E 027°49'48314.7
2014-Nov-25 07:33S 34°07' E 018°12'1817.2
2014-Nov-25 06:30S 33°51' E 018°00'  
Track history (hours):
 
Tides and Currents Weather Stations Pressure Air Temp Water Temp Dewpoint Dewpoint Depression Visibility Wind Speed Wind Dir Waves Ship Positions

Bergamot Ace

Last reported at 2014-Dec-03 19:09 UTC. Time now 2014-Dec-19 06:34 UTC.
Position S 33°48' E 018°00'.
Warning: this ship's position is 15 days out of date.

Length 186 m; draft 7.3 m.

Type: Cargo ship. MMSI: 319740000.

Date/timePositionNaut miles runAvg speedWind from/ knotsBaromVisibWave heightAir tempDewpointWater temp
2014-Dec-03 19:09S 33°48' E 018°00'1118.5
2014-Dec-03 18:33S 33°58' E 018°05'1918.5
2014-Dec-03 17:32S 34°15' E 018°14'2317.9
2014-Dec-03 16:14S 34°32' E 018°34'1518.5
2014-Dec-03 15:26S 34°37' E 018°50'28117.5
2014-Dec-02 23:22S 34°20' E 024°30'3317.8
2014-Dec-02 21:30S 34°15' E 025°10'37218.5
2014-Dec-02 01:26S 30°21' E 030°51'1719.0
2014-Dec-02 00:33S 30°06' E 031°01'1515.3
2014-Dec-01 23:33S 29°52' E 031°05'2 1.9
2014-Dec-01 22:22S 29°52' E 031°02'0 0.0
2014-Dec-01 21:22S 29°52' E 031°02'0 0.0
2014-Dec-01 20:28S 29°52' E 031°02'0 0.0
2014-Dec-01 19:28S 29°52' E 031°02'0 0.0
2014-Dec-01 18:28S 29°52' E 031°02'0 0.0
2014-Dec-01 17:28S 29°52' E 031°02'0 0.0
2014-Dec-01 16:28S 29°52' E 031°02'0 0.0
2014-Dec-01 15:28S 29°52' E 031°02'0 0.0
2014-Dec-01 14:28S 29°52' E 031°02'0 0.0
2014-Dec-01 13:28S 29°52' E 031°02'0 0.0
2014-Dec-01 12:28S 29°52' E 031°02'2 2.6
2014-Dec-01 11:33S 29°51' E 031°05'5 5.5
2014-Dec-01 10:33S 29°49' E 031°10'5 5.2
2014-Dec-01 09:33S 29°51' E 031°05'2 1.7
2014-Dec-01 08:33S 29°52' E 031°03'4 4.0
2014-Dec-01 07:33S 29°49' E 031°07'1 1.5
2014-Dec-01 06:33S 29°49' E 031°08'2 1.5
2014-Dec-01 05:33S 29°50' E 031°10'1 1.1
2014-Dec-01 04:33S 29°51' E 031°10'1 1.0
2014-Dec-01 03:33S 29°51' E 031°11'3 3.2
2014-Dec-01 02:33S 29°52' E 031°14'1 0.9
2014-Dec-01 01:33S 29°51' E 031°14'2 1.5
2014-Dec-01 00:33S 29°51' E 031°12'8 8.1
2014-Nov-30 23:33S 29°59' E 031°10'1 0.8
2014-Nov-30 22:33S 29°58' E 031°10'1 1.3
2014-Nov-30 21:33S 29°58' E 031°09'1 0.9
2014-Nov-30 20:33S 29°57' E 031°09'1 0.7
2014-Nov-30 19:33S 29°56' E 031°09'1 1.3
2014-Nov-30 18:33S 29°55' E 031°10'1 1.2
2014-Nov-30 17:33S 29°55' E 031°12'1 1.0
2014-Nov-30 16:33S 29°55' E 031°13'  
2014-Nov-27 15:32S 29°10' E 032°01'1515.0
2014-Nov-27 14:33S 29°20' E 031°49'1515.5
2014-Nov-27 13:33S 29°32' E 031°37'1615.5
2014-Nov-27 12:33S 29°44' E 031°26'1515.3
2014-Nov-27 11:33S 29°57' E 031°16'1515.2
2014-Nov-27 10:33S 30°07' E 031°04'25013.9
2014-Nov-26 16:32S 33°15' E 027°49'48314.7
2014-Nov-25 07:33S 34°07' E 018°12'1817.2
2014-Nov-25 06:30S 33°51' E 018°00'  

Dump ship's entire track history